sensor_id;sensor_type;location;lat;lon;timestamp;pressure;altitude;pressure_sealevel;temperature;humidity
28289;BME280;15558;50.874;6.964;2022-09-14T00:00:43;100313.53;;;23.83;72.33
28289;BME280;15558;50.874;6.964;2022-09-14T00:03:08;100312.25;;;23.73;73.38
28289;BME280;15558;50.874;6.964;2022-09-14T00:05:46;100313.41;;;23.69;74.19
28289;BME280;15558;50.874;6.964;2022-09-14T00:08:13;100302.81;;;23.69;73.86
28289;BME280;15558;50.874;6.964;2022-09-14T00:10:40;100296.22;;;23.69;73.78
28289;BME280;15558;50.874;6.964;2022-09-14T00:13:07;100292.97;;;23.70;73.39
28289;BME280;15558;50.874;6.964;2022-09-14T00:15:35;100286.03;;;23.71;73.73
28289;BME280;15558;50.874;6.964;2022-09-14T00:18:02;100289.28;;;23.70;73.71
28289;BME280;15558;50.874;6.964;2022-09-14T00:20:29;100282.81;;;23.80;73.36
28289;BME280;15558;50.874;6.964;2022-09-14T00:22:55;100280.34;;;23.78;72.98
28289;BME280;15558;50.874;6.964;2022-09-14T00:25:21;100287.28;;;23.77;73.26
28289;BME280;15558;50.874;6.964;2022-09-14T00:27:47;100273.72;;;23.67;73.48
28289;BME280;15558;50.874;6.964;2022-09-14T00:30:12;100278.69;;;23.77;73.33
28289;BME280;15558;50.874;6.964;2022-09-14T00:32:38;100267.16;;;23.70;74.03
28289;BME280;15558;50.874;6.964;2022-09-14T00:35:05;100264.34;;;23.77;73.62
28289;BME280;15558;50.874;6.964;2022-09-14T00:37:31;100257.78;;;23.73;73.75
28289;BME280;15558;50.874;6.964;2022-09-14T00:39:57;100259.00;;;23.72;73.87
28289;BME280;15558;50.874;6.964;2022-09-14T00:42:23;100260.59;;;23.66;74.17
28289;BME280;15558;50.874;6.964;2022-09-14T00:47:16;100260.66;;;23.73;73.65
28289;BME280;15558;50.874;6.964;2022-09-14T00:49:42;100260.66;;;23.73;73.83
28289;BME280;15558;50.874;6.964;2022-09-14T00:52:24;100260.22;;;23.71;73.95
28289;BME280;15558;50.874;6.964;2022-09-14T00:54:54;100263.03;;;23.64;74.29
28289;BME280;15558;50.874;6.964;2022-09-14T00:57:22;100263.06;;;23.68;74.41
28289;BME280;15558;50.874;6.964;2022-09-14T00:59:50;100249.03;;;23.56;74.55
28289;BME280;15558;50.874;6.964;2022-09-14T01:02:18;100254.31;;;23.51;74.73
28289;BME280;15558;50.874;6.964;2022-09-14T01:04:46;100249.13;;;23.63;74.50
28289;BME280;15558;50.874;6.964;2022-09-14T01:18:57;100242.16;;;23.64;74.40
28289;BME280;15558;50.874;6.964;2022-09-14T01:21:31;100235.53;;;23.57;74.47
28289;BME280;15558;50.874;6.964;2022-09-14T01:27:03;100227.25;;;23.48;74.88
28289;BME280;15558;50.874;6.964;2022-09-14T01:32:15;100238.28;;;23.46;74.97
28289;BME280;15558;50.874;6.964;2022-09-14T01:35:12;100230.88;;;23.42;75.49
28289;BME280;15558;50.874;6.964;2022-09-14T01:37:47;100236.25;;;23.47;75.10
28289;BME280;15558;50.874;6.964;2022-09-14T01:40:21;100240.78;;;23.51;75.01
28289;BME280;15558;50.874;6.964;2022-09-14T01:42:53;100243.63;;;23.48;74.86
28289;BME280;15558;50.874;6.964;2022-09-14T01:45:22;100253.03;;;23.48;75.34
28289;BME280;15558;50.874;6.964;2022-09-14T01:47:54;100261.22;;;23.50;74.98
28289;BME280;15558;50.874;6.964;2022-09-14T01:50:28;100261.22;;;23.50;75.12
28289;BME280;15558;50.874;6.964;2022-09-14T01:53:04;100257.16;;;23.51;75.04
28289;BME280;15558;50.874;6.964;2022-09-14T01:55:41;100251.41;;;23.47;75.10
28289;BME280;15558;50.874;6.964;2022-09-14T01:58:20;100247.28;;;23.48;75.13
28289;BME280;15558;50.874;6.964;2022-09-14T02:00:52;100244.00;;;23.46;75.28
28289;BME280;15558;50.874;6.964;2022-09-14T02:03:23;100238.31;;;23.50;74.83
28289;BME280;15558;50.874;6.964;2022-09-14T02:05:57;100238.69;;;23.45;74.94
28289;BME280;15558;50.874;6.964;2022-09-14T02:08:27;100239.84;;;23.37;75.04
28289;BME280;15558;50.874;6.964;2022-09-14T02:10:54;100236.59;;;23.38;75.48
28289;BME280;15558;50.874;6.964;2022-09-14T02:13:20;100240.28;;;23.39;75.75
28289;BME280;15558;50.874;6.964;2022-09-14T02:15:46;100234.13;;;23.37;75.84
28289;BME280;15558;50.874;6.964;2022-09-14T02:18:12;100223.84;;;23.36;76.08
28289;BME280;15558;50.874;6.964;2022-09-14T02:20:52;100223.03;;;23.35;76.01
28289;BME280;15558;50.874;6.964;2022-09-14T02:23:19;100221.00;;;23.36;75.99
28289;BME280;15558;50.874;6.964;2022-09-14T02:25:46;100207.91;;;23.35;76.14
28289;BME280;15558;50.874;6.964;2022-09-14T02:28:12;100204.69;;;23.43;76.05
28289;BME280;15558;50.874;6.964;2022-09-14T02:30:47;100206.28;;;23.37;75.73
28289;BME280;15558;50.874;6.964;2022-09-14T02:33:22;100204.22;;;23.38;75.54
28289;BME280;15558;50.874;6.964;2022-09-14T02:35:53;100200.53;;;23.34;76.03
28289;BME280;15558;50.874;6.964;2022-09-14T02:38:34;100194.00;;;23.37;76.00
28289;BME280;15558;50.874;6.964;2022-09-14T02:41:09;100187.44;;;23.33;76.13
28289;BME280;15558;50.874;6.964;2022-09-14T02:46:16;100192.34;;;23.36;75.91
28289;BME280;15558;50.874;6.964;2022-09-14T02:49:05;100196.44;;;23.35;76.39
28289;BME280;15558;50.874;6.964;2022-09-14T02:52:38;100185.81;;;23.32;76.52
28289;BME280;15558;50.874;6.964;2022-09-14T02:54:53;100171.91;;;23.34;76.30
28289;BME280;15558;50.874;6.964;2022-09-14T02:57:21;100165.38;;;23.37;76.05
28289;BME280;15558;50.874;6.964;2022-09-14T02:59:47;100152.75;;;23.45;75.72
28289;BME280;15558;50.874;6.964;2022-09-14T03:02:13;100152.25;;;23.36;75.95
28289;BME280;15558;50.874;6.964;2022-09-14T03:04:39;100149.03;;;23.41;76.14
28289;BME280;15558;50.874;6.964;2022-09-14T03:07:05;100138.81;;;23.43;76.02
28289;BME280;15558;50.874;6.964;2022-09-14T03:09:31;100149.09;;;23.51;75.47
28289;BME280;15558;50.874;6.964;2022-09-14T03:11:56;100144.06;;;23.38;75.87
28289;BME280;15558;50.874;6.964;2022-09-14T03:14:22;100137.56;;;23.41;76.07
28289;BME280;15558;50.874;6.964;2022-09-14T03:16:48;100131.84;;;23.41;75.87
28289;BME280;15558;50.874;6.964;2022-09-14T03:19:14;100128.59;;;23.46;75.96
28289;BME280;15558;50.874;6.964;2022-09-14T03:21:40;100135.13;;;23.43;76.19
28289;BME280;15558;50.874;6.964;2022-09-14T03:24:06;100129.75;;;23.38;76.89
28289;BME280;15558;50.874;6.964;2022-09-14T03:26:32;100125.28;;;23.40;76.11
28289;BME280;15558;50.874;6.964;2022-09-14T03:29:01;100134.31;;;23.42;76.38
28289;BME280;15558;50.874;6.964;2022-09-14T03:31:27;100128.19;;;23.47;75.91
28289;BME280;15558;50.874;6.964;2022-09-14T03:33:55;100133.47;;;23.42;76.33
28289;BME280;15558;50.874;6.964;2022-09-14T03:36:22;100126.09;;;23.41;76.28
28289;BME280;15558;50.874;6.964;2022-09-14T03:38:51;100134.69;;;23.41;76.32
28289;BME280;15558;50.874;6.964;2022-09-14T03:41:18;100131.88;;;23.44;76.13
28289;BME280;15558;50.874;6.964;2022-09-14T03:43:45;100129.00;;;23.44;76.21
28289;BME280;15558;50.874;6.964;2022-09-14T03:46:16;100129.81;;;23.48;75.90
28289;BME280;15558;50.874;6.964;2022-09-14T03:48:43;100130.28;;;23.54;75.50
28289;BME280;15558;50.874;6.964;2022-09-14T03:51:11;100129.41;;;23.46;75.84
28289;BME280;15558;50.874;6.964;2022-09-14T03:53:37;100130.25;;;23.50;75.99
28289;BME280;15558;50.874;6.964;2022-09-14T03:56:13;100126.97;;;23.48;75.91
28289;BME280;15558;50.874;6.964;2022-09-14T03:58:40;100122.06;;;23.52;75.85
28289;BME280;15558;50.874;6.964;2022-09-14T04:01:12;100123.69;;;23.50;76.00
28289;BME280;15558;50.874;6.964;2022-09-14T04:03:39;100124.56;;;23.54;76.04
28289;BME280;15558;50.874;6.964;2022-09-14T04:06:05;100127.38;;;23.47;76.16
28289;BME280;15558;50.874;6.964;2022-09-14T04:08:33;100122.06;;;23.52;75.82
28289;BME280;15558;50.874;6.964;2022-09-14T04:10:59;100120.81;;;23.43;76.26
28289;BME280;15558;50.874;6.964;2022-09-14T04:13:25;100111.34;;;23.39;76.42
28289;BME280;15558;50.874;6.964;2022-09-14T04:15:56;100115.91;;;23.47;76.22
28289;BME280;15558;50.874;6.964;2022-09-14T04:18:22;100110.59;;;23.45;76.07
28289;BME280;15558;50.874;6.964;2022-09-14T04:21:00;100108.91;;;23.41;76.64
28289;BME280;15558;50.874;6.964;2022-09-14T04:23:26;100110.63;;;23.49;76.42
28289;BME280;15558;50.874;6.964;2022-09-14T04:25:52;100108.47;;;23.35;76.87
28289;BME280;15558;50.874;6.964;2022-09-14T04:28:19;100112.16;;;23.39;76.65
28289;BME280;15558;50.874;6.964;2022-09-14T04:31:00;100115.81;;;23.33;77.16
28289;BME280;15558;50.874;6.964;2022-09-14T04:33:32;100110.13;;;23.40;76.92
28289;BME280;15558;50.874;6.964;2022-09-14T04:36:03;100113.41;;;23.42;76.80
28289;BME280;15558;50.874;6.964;2022-09-14T04:38:30;100106.09;;;23.44;76.61
28289;BME280;15558;50.874;6.964;2022-09-14T04:40:57;100102.31;;;23.33;76.93
28289;BME280;15558;50.874;6.964;2022-09-14T04:43:24;100110.03;;;23.26;77.47
28289;BME280;15558;50.874;6.964;2022-09-14T04:45:51;100093.72;;;23.30;77.48
28289;BME280;15558;50.874;6.964;2022-09-14T04:48:18;100100.28;;;23.37;77.16
28289;BME280;15558;50.874;6.964;2022-09-14T04:50:44;100100.75;;;23.43;76.75
28289;BME280;15558;50.874;6.964;2022-09-14T04:53:10;100096.56;;;23.30;77.34
28289;BME280;15558;50.874;6.964;2022-09-14T04:55:37;100093.34;;;23.38;77.05
28289;BME280;15558;50.874;6.964;2022-09-14T04:58:03;100087.13;;;23.26;77.62
28289;BME280;15558;50.874;6.964;2022-09-14T05:00:32;100096.53;;;23.26;77.92
28289;BME280;15558;50.874;6.964;2022-09-14T05:02:58;100093.28;;;23.28;77.82
28289;BME280;15558;50.874;6.964;2022-09-14T05:05:24;100087.97;;;23.30;77.15
28289;BME280;15558;50.874;6.964;2022-09-14T05:07:50;100094.06;;;23.25;77.76
28289;BME280;15558;50.874;6.964;2022-09-14T05:10:16;100086.69;;;23.21;78.20
28289;BME280;15558;50.874;6.964;2022-09-14T05:12:42;100087.94;;;23.26;77.90
28289;BME280;15558;50.874;6.964;2022-09-14T05:15:08;100080.50;;;23.15;78.93
28289;BME280;15558;50.874;6.964;2022-09-14T05:17:34;100081.34;;;23.16;78.99
28289;BME280;15558;50.874;6.964;2022-09-14T05:20:00;100085.41;;;23.15;79.01
28289;BME280;15558;50.874;6.964;2022-09-14T05:22:26;100079.69;;;23.15;78.59
28289;BME280;15558;50.874;6.964;2022-09-14T05:24:52;100084.19;;;23.16;79.06
28289;BME280;15558;50.874;6.964;2022-09-14T05:27:18;100079.69;;;23.11;79.12
28289;BME280;15558;50.874;6.964;2022-09-14T05:29:44;100080.09;;;23.13;79.30
28289;BME280;15558;50.874;6.964;2022-09-14T05:32:10;100077.66;;;23.19;78.85
28289;BME280;15558;50.874;6.964;2022-09-14T05:34:36;100078.06;;;23.14;79.23
28289;BME280;15558;50.874;6.964;2022-09-14T05:37:02;100075.19;;;23.14;79.07
28289;BME280;15558;50.874;6.964;2022-09-14T05:39:28;100073.59;;;23.20;79.35
28289;BME280;15558;50.874;6.964;2022-09-14T05:41:54;100073.13;;;23.14;79.02
28289;BME280;15558;50.874;6.964;2022-09-14T05:44:20;100071.50;;;23.13;79.45
28289;BME280;15558;50.874;6.964;2022-09-14T05:46:46;100067.84;;;23.16;79.21
28289;BME280;15558;50.874;6.964;2022-09-14T05:49:12;100066.16;;;23.12;79.44
28289;BME280;15558;50.874;6.964;2022-09-14T05:51:38;100066.97;;;23.12;79.21
28289;BME280;15558;50.874;6.964;2022-09-14T05:54:03;100073.94;;;23.11;79.50
28289;BME280;15558;50.874;6.964;2022-09-14T05:56:34;100068.66;;;23.13;79.23
28289;BME280;15558;50.874;6.964;2022-09-14T05:59:00;100076.00;;;23.14;79.35
28289;BME280;15558;50.874;6.964;2022-09-14T06:01:28;100070.22;;;23.07;79.92
28289;BME280;15558;50.874;6.964;2022-09-14T06:03:56;100075.16;;;23.10;79.45
28289;BME280;15558;50.874;6.964;2022-09-14T06:06:23;100073.53;;;23.09;79.33
28289;BME280;15558;50.874;6.964;2022-09-14T06:08:50;100075.97;;;23.07;79.47
28289;BME280;15558;50.874;6.964;2022-09-14T06:11:19;100071.88;;;23.08;79.36
28289;BME280;15558;50.874;6.964;2022-09-14T06:13:46;100067.78;;;23.09;79.14
28289;BME280;15558;50.874;6.964;2022-09-14T06:16:14;100073.53;;;23.09;79.26
28289;BME280;15558;50.874;6.964;2022-09-14T06:18:42;100077.56;;;23.05;79.71
28289;BME280;15558;50.874;6.964;2022-09-14T06:21:10;100079.22;;;23.06;79.40
28289;BME280;15558;50.874;6.964;2022-09-14T06:23:37;100073.09;;;23.07;79.48
28289;BME280;15558;50.874;6.964;2022-09-14T06:26:04;100088.66;;;23.10;79.12
28289;BME280;15558;50.874;6.964;2022-09-14T06:28:31;100084.16;;;23.12;79.02
28289;BME280;15558;50.874;6.964;2022-09-14T06:30:58;100088.22;;;23.08;79.21
28289;BME280;15558;50.874;6.964;2022-09-14T06:33:24;100084.91;;;23.02;79.88
28289;BME280;15558;50.874;6.964;2022-09-14T06:36:01;100083.69;;;23.03;79.97
28289;BME280;15558;50.874;6.964;2022-09-14T06:38:28;100091.06;;;23.04;79.03
28289;BME280;15558;50.874;6.964;2022-09-14T06:40:59;100091.09;;;23.08;78.74
28289;BME280;15558;50.874;6.964;2022-09-14T06:43:27;100090.53;;;22.92;79.13
28289;BME280;15558;50.874;6.964;2022-09-14T06:48:36;100097.06;;;22.89;78.08
28289;BME280;15558;50.874;6.964;2022-09-14T06:51:16;100103.53;;;22.83;78.00
28289;BME280;15558;50.874;6.964;2022-09-14T06:53:43;100098.69;;;22.90;77.52
28289;BME280;15558;50.874;6.964;2022-09-14T06:56:10;100094.63;;;22.91;77.29
28289;BME280;15558;50.874;6.964;2022-09-14T06:58:36;100098.16;;;22.78;77.82
28289;BME280;15558;50.874;6.964;2022-09-14T07:01:04;100089.94;;;22.73;78.08
28289;BME280;15558;50.874;6.964;2022-09-14T07:03:31;100086.28;;;22.76;78.13
28289;BME280;15558;50.874;6.964;2022-09-14T07:06:04;100094.03;;;22.72;78.00
28289;BME280;15558;50.874;6.964;2022-09-14T07:08:35;100090.34;;;22.71;78.10
28289;BME280;15558;50.874;6.964;2022-09-14T07:11:02;100088.31;;;22.72;77.53
28289;BME280;15558;50.874;6.964;2022-09-14T07:13:29;100089.50;;;22.71;77.38
28289;BME280;15558;50.874;6.964;2022-09-14T07:15:55;100077.69;;;22.72;77.21
28289;BME280;15558;50.874;6.964;2022-09-14T07:18:22;100078.88;;;22.68;77.75
28289;BME280;15558;50.874;6.964;2022-09-14T07:20:53;100082.50;;;22.65;77.42
28289;BME280;15558;50.874;6.964;2022-09-14T07:23:20;100074.63;;;22.55;77.93
28289;BME280;15558;50.874;6.964;2022-09-14T07:25:46;100079.69;;;22.68;77.25
28289;BME280;15558;50.874;6.964;2022-09-14T07:28:12;100072.22;;;22.57;77.38
28289;BME280;15558;50.874;6.964;2022-09-14T07:30:38;100062.44;;;22.61;77.65
28289;BME280;15558;50.874;6.964;2022-09-14T07:33:06;100068.16;;;22.58;77.37
28289;BME280;15558;50.874;6.964;2022-09-14T07:35:32;100066.06;;;22.52;77.68
28289;BME280;15558;50.874;6.964;2022-09-14T07:37:58;100061.16;;;22.52;77.43
28289;BME280;15558;50.874;6.964;2022-09-14T07:40:24;100062.34;;;22.51;77.33
28289;BME280;15558;50.874;6.964;2022-09-14T07:42:52;100070.09;;;22.47;77.80
28289;BME280;15558;50.874;6.964;2022-09-14T07:45:19;100069.25;;;22.47;77.97
28289;BME280;15558;50.874;6.964;2022-09-14T07:47:46;100059.09;;;22.52;77.90
28289;BME280;15558;50.874;6.964;2022-09-14T07:50:12;100055.75;;;22.44;78.35
28289;BME280;15558;50.874;6.964;2022-09-14T07:52:37;100055.78;;;22.47;77.59
28289;BME280;15558;50.874;6.964;2022-09-14T07:55:05;100057.84;;;22.50;77.26
28289;BME280;15558;50.874;6.964;2022-09-14T07:57:31;100056.56;;;22.44;77.24
28289;BME280;15558;50.874;6.964;2022-09-14T07:59:57;100061.31;;;22.30;77.86
28289;BME280;15558;50.874;6.964;2022-09-14T08:02:24;100060.56;;;22.36;77.99
28289;BME280;15558;50.874;6.964;2022-09-14T08:04:50;100066.34;;;22.40;78.12
28289;BME280;15558;50.874;6.964;2022-09-14T08:07:20;100063.47;;;22.40;77.69
28289;BME280;15558;50.874;6.964;2022-09-14T08:09:46;100063.13;;;22.48;77.19
28289;BME280;15558;50.874;6.964;2022-09-14T08:12:12;100064.81;;;22.49;77.69
28289;BME280;15558;50.874;6.964;2022-09-14T08:14:41;100068.38;;;22.39;77.93
28289;BME280;15558;50.874;6.964;2022-09-14T08:17:07;100062.75;;;22.50;77.63
28289;BME280;15558;50.874;6.964;2022-09-14T08:19:35;100061.56;;;22.54;77.52
28289;BME280;15558;50.874;6.964;2022-09-14T08:22:03;100060.25;;;22.45;77.87
28289;BME280;15558;50.874;6.964;2022-09-14T08:24:29;100050.09;;;22.51;78.01
28289;BME280;15558;50.874;6.964;2022-09-14T08:26:55;100055.81;;;22.51;77.53
28289;BME280;15558;50.874;6.964;2022-09-14T08:29:21;100066.44;;;22.50;77.46
28289;BME280;15558;50.874;6.964;2022-09-14T08:31:48;100060.28;;;22.48;77.64
28289;BME280;15558;50.874;6.964;2022-09-14T08:34:16;100072.91;;;22.44;77.68
28289;BME280;15558;50.874;6.964;2022-09-14T08:36:43;100070.81;;;22.41;77.93
28289;BME280;15558;50.874;6.964;2022-09-14T08:39:12;100071.28;;;22.46;78.14
28289;BME280;15558;50.874;6.964;2022-09-14T08:46:52;100078.19;;;22.42;78.60
28289;BME280;15558;50.874;6.964;2022-09-14T08:51:58;100083.97;;;22.45;78.16
28289;BME280;15558;50.874;6.964;2022-09-14T08:54:24;100081.13;;;22.49;77.84
28289;BME280;15558;50.874;6.964;2022-09-14T08:57:02;100081.03;;;22.38;77.92
28289;BME280;15558;50.874;6.964;2022-09-14T08:59:53;100082.25;;;22.41;77.63
28289;BME280;15558;50.874;6.964;2022-09-14T09:02:53;100083.53;;;22.43;77.47
28289;BME280;15558;50.874;6.964;2022-09-14T09:10:33;100090.84;;;22.41;78.30
28289;BME280;15558;50.874;6.964;2022-09-14T09:13:04;100091.69;;;22.41;77.69
28289;BME280;15558;50.874;6.964;2022-09-14T09:15:34;100087.50;;;22.32;78.48
28289;BME280;15558;50.874;6.964;2022-09-14T09:18:18;100082.75;;;22.46;77.91
28289;BME280;15558;50.874;6.964;2022-09-14T09:20:49;100089.25;;;22.43;78.25
28289;BME280;15558;50.874;6.964;2022-09-14T09:23:18;100086.78;;;22.42;78.20
28289;BME280;15558;50.874;6.964;2022-09-14T09:26:20;100080.13;;;22.31;78.54
28289;BME280;15558;50.874;6.964;2022-09-14T09:28:49;100079.84;;;22.43;78.45
28289;BME280;15558;50.874;6.964;2022-09-14T09:31:17;100080.25;;;22.45;78.35
28289;BME280;15558;50.874;6.964;2022-09-14T09:33:46;100085.63;;;22.50;78.49
28289;BME280;15558;50.874;6.964;2022-09-14T09:36:13;100085.66;;;22.53;78.19
28289;BME280;15558;50.874;6.964;2022-09-14T09:38:40;100078.69;;;22.47;78.37
28289;BME280;15558;50.874;6.964;2022-09-14T09:41:23;100072.97;;;22.51;78.50
28289;BME280;15558;50.874;6.964;2022-09-14T09:44:03;100071.72;;;22.48;78.59
28289;BME280;15558;50.874;6.964;2022-09-14T09:46:37;100079.50;;;22.51;78.35
28289;BME280;15558;50.874;6.964;2022-09-14T09:49:15;100076.25;;;22.49;77.75
28289;BME280;15558;50.874;6.964;2022-09-14T09:51:41;100081.97;;;22.49;78.18
28289;BME280;15558;50.874;6.964;2022-09-14T09:54:15;100075.34;;;22.42;78.52
28289;BME280;15558;50.874;6.964;2022-09-14T09:56:57;100068.44;;;22.46;78.83
28289;BME280;15558;50.874;6.964;2022-09-14T09:59:34;100061.84;;;22.39;78.64
28289;BME280;15558;50.874;6.964;2022-09-14T10:04:58;100056.13;;;22.42;78.42
28289;BME280;15558;50.874;6.964;2022-09-14T10:07:26;100046.03;;;22.52;78.89
28289;BME280;15558;50.874;6.964;2022-09-14T10:09:57;100050.75;;;22.34;79.34
28289;BME280;15558;50.874;6.964;2022-09-14T10:12:23;100053.25;;;22.39;79.08
28289;BME280;15558;50.874;6.964;2022-09-14T10:15:04;100045.66;;;22.56;79.11
28289;BME280;15558;50.874;6.964;2022-09-14T10:17:31;100046.88;;;22.55;78.29
28289;BME280;15558;50.874;6.964;2022-09-14T10:19:57;100048.47;;;22.53;78.37
28289;BME280;15558;50.874;6.964;2022-09-14T10:22:33;100046.50;;;22.60;78.44
28289;BME280;15558;50.874;6.964;2022-09-14T10:25:25;100057.84;;;22.50;78.78
28289;BME280;15558;50.874;6.964;2022-09-14T10:27:57;100048.47;;;22.50;79.13
28289;BME280;15558;50.874;6.964;2022-09-14T10:30:31;100055.31;;;22.42;79.03
28289;BME280;15558;50.874;6.964;2022-09-14T10:33:03;100051.28;;;22.46;79.05
28289;BME280;15558;50.874;6.964;2022-09-14T10:40:39;100052.09;;;22.47;78.41
28289;BME280;15558;50.874;6.964;2022-09-14T10:43:21;100047.25;;;22.54;77.83
28289;BME280;15558;50.874;6.964;2022-09-14T10:45:57;100046.88;;;22.55;77.97
28289;BME280;15558;50.874;6.964;2022-09-14T10:48:38;100062.34;;;22.51;78.28
28289;BME280;15558;50.874;6.964;2022-09-14T10:51:21;100061.56;;;22.54;78.28
28289;BME280;15558;50.874;6.964;2022-09-14T10:56:58;100065.19;;;22.48;78.71
28289;BME280;15558;50.874;6.964;2022-09-14T11:04:42;100067.09;;;22.33;78.95
28289;BME280;15558;50.874;6.964;2022-09-14T11:07:19;100070.00;;;22.40;78.72
28289;BME280;15558;50.874;6.964;2022-09-14T11:09:55;100057.78;;;22.43;78.11
28289;BME280;15558;50.874;6.964;2022-09-14T11:15:33;100045.84;;;22.34;78.02
28289;BME280;15558;50.874;6.964;2022-09-14T11:18:07;100040.09;;;22.31;78.02
28289;BME280;15558;50.874;6.964;2022-09-14T11:26:05;100025.72;;;22.20;78.61
28289;BME280;15558;50.874;6.964;2022-09-14T11:28:56;100023.13;;;22.12;79.05
28289;BME280;15558;50.874;6.964;2022-09-14T11:31:28;100029.47;;;22.31;79.06
28289;BME280;15558;50.874;6.964;2022-09-14T11:34:01;100020.97;;;22.38;79.13
28289;BME280;15558;50.874;6.964;2022-09-14T11:36:39;100018.09;;;22.38;79.20
28289;BME280;15558;50.874;6.964;2022-09-14T11:39:21;100016.53;;;22.44;79.72
28289;BME280;15558;50.874;6.964;2022-09-14T11:41:52;100016.56;;;22.48;79.66
28289;BME280;15558;50.874;6.964;2022-09-14T11:44:30;100005.56;;;22.53;79.24
28289;BME280;15558;50.874;6.964;2022-09-14T11:47:12;100006.84;;;22.55;79.37
28289;BME280;15558;50.874;6.964;2022-09-14T11:50:18;100005.97;;;22.55;80.12
28289;BME280;15558;50.874;6.964;2022-09-14T11:52:48;100008.41;;;22.53;79.69
28289;BME280;15558;50.874;6.964;2022-09-14T11:55:20;100006.88;;;22.62;80.29
28289;BME280;15558;50.874;6.964;2022-09-14T11:57:46;100010.47;;;22.49;79.82
28289;BME280;15558;50.874;6.964;2022-09-14T12:02:57;100007.69;;;22.59;79.74
28289;BME280;15558;50.874;6.964;2022-09-14T12:05:25;100008.00;;;22.51;79.63
28289;BME280;15558;50.874;6.964;2022-09-14T12:10:26;99997.00;;;22.56;80.10
28289;BME280;15558;50.874;6.964;2022-09-14T12:23:28;99987.28;;;22.64;80.27
28289;BME280;15558;50.874;6.964;2022-09-14T12:28:37;99988.97;;;22.72;80.74
28289;BME280;15558;50.874;6.964;2022-09-14T12:40:58;100001.97;;;22.59;79.72
28289;BME280;15558;50.874;6.964;2022-09-14T12:54:08;99986.28;;;22.43;79.68
28289;BME280;15558;50.874;6.964;2022-09-14T12:59:50;99995.72;;;22.47;78.56
28289;BME280;15558;50.874;6.964;2022-09-14T13:05:00;99989.00;;;22.29;79.07
28289;BME280;15558;50.874;6.964;2022-09-14T13:07:33;99989.91;;;22.40;78.99
28289;BME280;15558;50.874;6.964;2022-09-14T13:10:02;99978.47;;;22.40;78.75
28289;BME280;15558;50.874;6.964;2022-09-14T13:12:35;99959.59;;;22.29;79.04
28289;BME280;15558;50.874;6.964;2022-09-14T13:15:26;99946.09;;;22.26;78.86
28289;BME280;15558;50.874;6.964;2022-09-14T13:18:03;99939.19;;;22.30;79.36
28289;BME280;15558;50.874;6.964;2022-09-14T13:20:32;99934.72;;;22.36;79.55
28289;BME280;15558;50.874;6.964;2022-09-14T13:22:58;99928.59;;;22.34;80.50
28289;BME280;15558;50.874;6.964;2022-09-14T13:25:35;99924.13;;;22.37;80.38
28289;BME280;15558;50.874;6.964;2022-09-14T13:28:05;99949.13;;;22.47;80.51
28289;BME280;15558;50.874;6.964;2022-09-14T13:30:33;99954.50;;;22.55;80.44
28289;BME280;15558;50.874;6.964;2022-09-14T13:32:59;99959.41;;;22.54;80.24
28289;BME280;15558;50.874;6.964;2022-09-14T13:35:33;99974.03;;;22.46;78.40
28289;BME280;15558;50.874;6.964;2022-09-14T13:38:09;99969.47;;;22.35;79.31
28289;BME280;15558;50.874;6.964;2022-09-14T13:40:38;99970.66;;;22.34;79.06
28289;BME280;15558;50.874;6.964;2022-09-14T13:43:04;99968.63;;;22.34;79.13
28289;BME280;15558;50.874;6.964;2022-09-14T13:45:30;99969.38;;;22.28;79.61
28289;BME280;15558;50.874;6.964;2022-09-14T13:47:57;99964.59;;;22.42;78.76
28289;BME280;15558;50.874;6.964;2022-09-14T13:50:24;99963.75;;;22.35;78.95
28289;BME280;15558;50.874;6.964;2022-09-14T13:52:51;99956.75;;;22.29;78.80
28289;BME280;15558;50.874;6.964;2022-09-14T13:55:27;99955.47;;;22.23;79.50
28289;BME280;15558;50.874;6.964;2022-09-14T13:58:14;99953.38;;;22.20;79.41
28289;BME280;15558;50.874;6.964;2022-09-14T14:00:56;99956.28;;;22.23;79.27
28289;BME280;15558;50.874;6.964;2022-09-14T14:03:27;99957.91;;;22.21;79.31
28289;BME280;15558;50.874;6.964;2022-09-14T14:05:54;99950.00;;;22.08;79.43
28289;BME280;15558;50.874;6.964;2022-09-14T14:08:33;99955.84;;;22.21;78.76
28289;BME280;15558;50.874;6.964;2022-09-14T14:11:04;99949.19;;;22.11;78.89
28289;BME280;15558;50.874;6.964;2022-09-14T14:13:35;99951.75;;;22.19;79.21
28289;BME280;15558;50.874;6.964;2022-09-14T14:16:22;99948.38;;;22.10;79.66
28289;BME280;15558;50.874;6.964;2022-09-14T14:18:54;99945.19;;;22.15;79.34
28289;BME280;15558;50.874;6.964;2022-09-14T14:23:46;99954.47;;;22.09;79.73
28289;BME280;15558;50.874;6.964;2022-09-14T14:26:24;99964.00;;;22.16;79.21
28289;BME280;15558;50.874;6.964;2022-09-14T14:28:52;99975.00;;;22.17;79.21
28289;BME280;15558;50.874;6.964;2022-09-14T14:31:20;99976.13;;;22.10;78.99
28289;BME280;15558;50.874;6.964;2022-09-14T14:33:50;99972.06;;;22.11;79.84
28289;BME280;15558;50.874;6.964;2022-09-14T14:36:18;99968.34;;;22.07;79.56
28289;BME280;15558;50.874;6.964;2022-09-14T14:38:45;99975.31;;;22.09;79.69
28289;BME280;15558;50.874;6.964;2022-09-14T14:41:17;99982.63;;;22.07;79.81
28289;BME280;15558;50.874;6.964;2022-09-14T14:43:44;99984.56;;;21.96;79.63
28289;BME280;15558;50.874;6.964;2022-09-14T14:46:15;99975.91;;;21.89;79.46
28289;BME280;15558;50.874;6.964;2022-09-14T14:48:41;99966.47;;;21.82;79.92
28289;BME280;15558;50.874;6.964;2022-09-14T14:51:12;99969.19;;;21.71;80.43
28289;BME280;15558;50.874;6.964;2022-09-14T14:53:39;99954.06;;;21.67;81.03
28289;BME280;15558;50.874;6.964;2022-09-14T14:56:05;99948.28;;;21.60;81.24
28289;BME280;15558;50.874;6.964;2022-09-14T14:58:31;99943.81;;;21.63;80.82